createdAt,value
2018-12-01T00:01:15.153Z,7.19
2018-12-01T00:06:18.355Z,7.18
2018-12-01T00:11:21.593Z,7.20
2018-12-01T00:16:24.911Z,7.17
2018-12-01T00:21:28.142Z,7.16
2018-12-01T00:26:31.336Z,7.16
2018-12-01T00:31:34.569Z,7.17
2018-12-01T00:36:37.733Z,7.18
2018-12-01T00:41:40.901Z,7.17
2018-12-01T00:46:44.067Z,7.10
2018-12-01T00:51:47.312Z,7.13
2018-12-01T00:56:50.542Z,7.13
2018-12-01T01:01:53.694Z,7.15
2018-12-01T01:06:56.921Z,7.15
2018-12-01T01:12:00.105Z,7.11
2018-12-01T01:17:03.304Z,7.06
2018-12-01T01:22:06.877Z,7.08
2018-12-01T01:27:10.066Z,7.07
2018-12-01T01:32:13.276Z,7.05
2018-12-01T01:37:16.465Z,6.97
2018-12-01T01:42:19.669Z,6.82
2018-12-01T01:47:22.882Z,6.70
2018-12-01T01:52:26.071Z,6.72
2018-12-01T01:57:29.274Z,6.71
2018-12-01T02:02:32.548Z,6.73
2018-12-01T02:07:35.763Z,6.79
2018-12-01T02:12:38.957Z,6.80
2018-12-01T02:17:42.201Z,6.79
2018-12-01T02:22:45.513Z,6.75
2018-12-01T02:27:48.872Z,6.82
2018-12-01T02:32:52.043Z,6.87
2018-12-01T02:37:55.237Z,6.86
2018-12-01T02:42:58.425Z,6.86
2018-12-01T02:48:01.590Z,6.82
2018-12-01T02:53:04.865Z,6.85
2018-12-01T02:58:08.027Z,6.90
2018-12-01T03:03:11.224Z,6.89
2018-12-01T03:08:14.426Z,6.91
2018-12-01T03:13:17.584Z,6.89
2018-12-01T03:18:20.765Z,6.79
2018-12-01T03:23:23.938Z,6.73
2018-12-01T03:28:27.081Z,6.76
2018-12-01T03:33:30.250Z,6.79
2018-12-01T03:38:33.465Z,6.77
2018-12-01T03:43:36.608Z,6.77
2018-12-01T03:48:39.752Z,6.79
2018-12-01T03:53:42.964Z,6.81
2018-12-01T03:58:46.133Z,6.81
2018-12-01T04:03:49.333Z,6.87
2018-12-01T04:08:52.482Z,6.74
2018-12-01T04:13:55.616Z,6.67
2018-12-01T04:18:58.794Z,6.63
2018-12-01T04:24:01.960Z,6.57
2018-12-01T04:29:05.239Z,6.52
2018-12-01T04:34:08.428Z,6.48
2018-12-01T04:39:12.173Z,6.42
2018-12-01T04:44:14.844Z,6.35
2018-12-01T04:49:18.085Z,6.31
2018-12-01T04:54:21.232Z,6.28
2018-12-01T04:59:24.387Z,6.22
2018-12-01T05:04:27.601Z,6.22
2018-12-01T05:09:30.765Z,6.19
2018-12-01T05:14:33.926Z,6.15
2018-12-01T05:19:37.086Z,6.09
2018-12-01T05:24:40.244Z,6.09
2018-12-01T05:29:43.429Z,6.04
2018-12-01T05:34:46.570Z,6.09
2018-12-01T05:39:49.753Z,6.16
2018-12-01T05:44:52.996Z,6.16
2018-12-01T05:49:56.181Z,6.17
2018-12-01T05:54:59.323Z,6.14
2018-12-01T06:00:02.757Z,6.20
2018-12-01T06:05:06.304Z,6.22
2018-12-01T06:10:14.965Z,6.25
2018-12-01T06:15:19.202Z,6.31
2018-12-01T06:20:23.285Z,6.31
2018-12-01T06:25:26.454Z,6.19
2018-12-01T06:30:29.605Z,6.08
2018-12-01T06:35:32.789Z,5.95
2018-12-01T06:40:35.929Z,5.90
2018-12-01T06:45:39.092Z,5.75
2018-12-01T06:50:42.349Z,5.61
2018-12-01T06:55:46.404Z,5.52
2018-12-01T07:00:49.568Z,5.36
2018-12-01T07:05:52.761Z,5.35
2018-12-01T07:10:55.993Z,5.33
2018-12-01T07:15:59.178Z,5.36
2018-12-01T07:21:02.419Z,5.38
2018-12-01T07:26:05.706Z,5.45
2018-12-01T07:31:08.890Z,5.59
2018-12-01T07:36:12.057Z,5.69
2018-12-01T07:41:15.342Z,5.61
2018-12-01T07:46:18.541Z,5.66
2018-12-01T07:51:21.757Z,5.72
2018-12-01T07:56:24.954Z,5.76
2018-12-01T08:01:28.142Z,5.72
2018-12-01T08:06:31.345Z,5.74
2018-12-01T08:11:34.547Z,5.64
2018-12-01T08:16:37.792Z,5.81
2018-12-01T08:21:41.049Z,6.13
2018-12-01T08:26:44.278Z,5.97
2018-12-01T08:31:47.522Z,5.86
2018-12-01T08:36:50.836Z,6.12
2018-12-01T08:41:54.103Z,6.07
2018-12-01T08:46:57.318Z,6.20
2018-12-01T08:52:00.493Z,6.22
2018-12-01T08:57:03.703Z,6.33
2018-12-01T09:02:06.873Z,6.19
2018-12-01T09:07:10.095Z,6.46
2018-12-01T09:12:14.236Z,6.51
2018-12-01T09:17:16.885Z,6.79
2018-12-01T09:22:20.445Z,6.96
2018-12-01T09:27:23.715Z,7.40
2018-12-01T09:32:26.934Z,7.64
2018-12-01T09:37:30.162Z,7.73
2018-12-01T09:42:33.408Z,8.18
2018-12-01T09:47:36.660Z,8.41
2018-12-01T09:52:39.901Z,8.50
2018-12-01T09:57:44.265Z,8.63
2018-12-01T10:02:47.831Z,8.81
2018-12-01T10:07:51.070Z,8.73
2018-12-01T10:12:55.789Z,8.82
2018-12-01T10:17:59.074Z,9.02
2018-12-01T10:23:11.453Z,9.43
2018-12-01T10:28:14.650Z,9.82
2018-12-01T10:33:17.968Z,9.90
2018-12-01T10:38:21.214Z,10.14
2018-12-01T10:43:24.501Z,10.27
2018-12-01T10:48:27.723Z,10.30
2018-12-01T10:53:30.967Z,10.27
2018-12-01T10:58:34.177Z,10.44
2018-12-01T11:03:39.921Z,10.51
2018-12-01T11:08:43.187Z,10.58
2018-12-01T11:13:46.429Z,10.75
2018-12-01T11:18:49.710Z,10.95
2018-12-01T11:23:52.944Z,10.94
2018-12-01T11:28:56.246Z,11.13
2018-12-01T11:33:59.544Z,11.19
2018-12-01T11:39:03.237Z,11.03
2018-12-01T11:44:07.168Z,11.32
2018-12-01T11:49:10.330Z,11.33
2018-12-01T11:54:13.639Z,11.39
2018-12-01T11:59:16.887Z,11.54
2018-12-01T12:04:20.289Z,11.37
2018-12-01T12:09:23.652Z,11.38
2018-12-01T12:14:26.890Z,11.18
2018-12-01T12:19:30.237Z,11.19
2018-12-01T12:24:33.490Z,11.16
2018-12-01T12:29:36.805Z,11.13
2018-12-01T12:34:40.111Z,10.96
2018-12-01T12:39:43.309Z,10.94
2018-12-01T12:44:46.537Z,10.83
2018-12-01T12:49:49.790Z,10.76
2018-12-01T12:54:53.046Z,10.83
2018-12-01T12:59:56.290Z,10.86
2018-12-01T13:04:59.567Z,10.81
2018-12-01T13:10:02.857Z,10.77
2018-12-01T13:15:09.861Z,10.86
2018-12-01T13:20:15.697Z,10.93
2018-12-01T13:25:18.953Z,10.97
2018-12-01T13:30:24.606Z,11.04
2018-12-01T13:35:27.818Z,11.17
2018-12-01T13:40:31.262Z,11.22
2018-12-01T13:45:34.975Z,11.21
2018-12-01T13:50:38.791Z,11.09
2018-12-01T13:55:42.653Z,10.97
2018-12-01T14:00:45.987Z,10.93
2018-12-01T14:05:49.691Z,10.87
2018-12-01T14:10:52.969Z,10.76
2018-12-01T14:15:56.951Z,10.75
2018-12-01T14:21:00.177Z,10.59
2018-12-01T14:26:04.232Z,10.57
2018-12-01T14:31:08.545Z,10.49
2018-12-01T14:36:12.713Z,10.43
2018-12-01T14:41:15.986Z,10.35
2018-12-01T14:46:19.249Z,10.30
2018-12-01T14:51:22.497Z,10.21
2018-12-01T14:56:25.714Z,10.09
2018-12-01T15:01:29.017Z,9.98
2018-12-01T15:06:32.319Z,9.90
2018-12-01T15:11:35.793Z,9.83
2018-12-01T15:16:39.018Z,9.70
2018-12-01T15:21:42.316Z,9.60
2018-12-01T15:26:45.701Z,9.53
2018-12-01T15:31:49.266Z,9.45
2018-12-01T15:36:52.507Z,9.39
2018-12-01T15:41:56.430Z,9.29
2018-12-01T15:46:59.217Z,9.15
2018-12-01T15:52:02.510Z,9.03
2018-12-01T15:57:06.162Z,8.91
2018-12-01T16:02:09.498Z,8.81
2018-12-01T16:07:12.755Z,8.83
2018-12-01T16:12:15.971Z,8.68
2018-12-01T16:17:19.346Z,8.66
2018-12-01T16:22:22.617Z,8.68
2018-12-01T16:27:25.850Z,8.56
2018-12-01T16:32:29.118Z,8.57
2018-12-01T16:37:33.508Z,8.56
2018-12-01T16:42:37.116Z,8.48
2018-12-01T16:47:40.327Z,8.41
2018-12-01T16:52:44.821Z,8.41
2018-12-01T16:57:48.106Z,8.22
2018-12-01T17:02:56.440Z,8.22
2018-12-01T17:07:59.717Z,8.16
2018-12-01T17:13:02.989Z,8.31
2018-12-01T17:18:08.136Z,8.23
2018-12-01T17:23:15.430Z,8.14
2018-12-01T17:28:19.588Z,8.16
2018-12-01T17:33:22.946Z,8.13
2018-12-01T17:38:26.193Z,8.09
2018-12-01T17:43:35.107Z,8.04
2018-12-01T17:48:38.818Z,7.97
2018-12-01T17:53:44.821Z,7.77
2018-12-01T17:58:48.082Z,7.70
2018-12-01T18:03:51.425Z,7.61
2018-12-01T18:08:55.159Z,7.49
2018-12-01T18:13:58.390Z,7.38
2018-12-01T18:19:02.573Z,7.34
2018-12-01T18:24:05.944Z,7.30
2018-12-01T18:29:09.389Z,7.19
2018-12-01T18:34:15.000Z,7.09
2018-12-01T18:39:19.260Z,7.05
2018-12-01T18:44:22.485Z,7.02
2018-12-01T18:49:25.791Z,7.04
2018-12-01T18:54:29.090Z,6.95
2018-12-01T18:59:32.369Z,6.93
2018-12-01T19:04:35.650Z,6.84
2018-12-01T19:09:38.935Z,6.64
2018-12-01T19:14:42.277Z,6.65
2018-12-01T19:19:45.585Z,6.50
2018-12-01T19:24:48.896Z,6.26
2018-12-01T19:29:53.093Z,6.27
2018-12-01T19:34:56.558Z,6.28
2018-12-01T19:40:00.984Z,6.40
2018-12-01T19:45:04.279Z,6.38
2018-12-01T19:50:24.078Z,6.45
2018-12-01T19:55:28.315Z,6.50
2018-12-01T20:00:31.647Z,6.52
2018-12-01T20:05:34.931Z,6.55
2018-12-01T20:11:01.483Z,6.62
2018-12-01T20:16:23.177Z,6.59
2018-12-01T20:21:26.492Z,6.62
2018-12-01T20:26:29.983Z,6.35
2018-12-01T20:31:33.361Z,6.41
2018-12-01T20:36:40.324Z,6.44
2018-12-01T20:41:43.549Z,6.44
2018-12-01T20:46:47.627Z,6.46
2018-12-01T20:51:50.849Z,6.56
2018-12-01T20:57:02.037Z,6.63
2018-12-01T21:02:05.984Z,6.75
2018-12-01T21:07:09.317Z,6.75
2018-12-01T21:12:13.670Z,6.72
2018-12-01T21:17:17.002Z,6.73
2018-12-01T21:22:20.263Z,6.49
2018-12-01T21:27:23.504Z,6.48
2018-12-01T21:32:26.753Z,6.49
2018-12-01T21:37:30.003Z,6.49
2018-12-01T21:42:33.218Z,6.52
2018-12-01T21:47:36.554Z,6.53
2018-12-01T21:52:40.716Z,6.53
2018-12-01T21:57:46.001Z,6.49
2018-12-01T22:02:53.714Z,6.54
2018-12-01T22:07:57.102Z,6.60
2018-12-01T22:13:01.037Z,6.64
2018-12-01T22:18:05.355Z,6.59
2018-12-01T22:23:08.591Z,6.65
2018-12-01T22:28:13.922Z,6.65
2018-12-01T22:33:21.847Z,6.61
2018-12-01T22:38:26.872Z,6.73
2018-12-01T22:43:30.131Z,6.72
2018-12-01T22:48:33.968Z,6.49
2018-12-01T22:53:38.448Z,6.51
2018-12-01T22:58:41.690Z,6.45
2018-12-01T23:03:44.908Z,6.45
2018-12-01T23:08:48.170Z,6.49
2018-12-01T23:13:51.393Z,6.50
2018-12-01T23:18:55.616Z,6.59
2018-12-01T23:23:57.853Z,6.62
2018-12-01T23:29:01.108Z,6.91
2018-12-01T23:34:04.533Z,6.76
2018-12-01T23:39:07.765Z,6.58
2018-12-01T23:44:19.182Z,6.65
2018-12-01T23:49:23.343Z,6.67
2018-12-01T23:54:26.545Z,6.79
2018-12-01T23:59:29.749Z,7.02
